Time;durP1;ratioP1;P1;durP2;ratioP2;P2;SDS_P1;SDS_P2;PMS_P1;PMS_P2;Temp;Humidity;BMP_temperature;BMP_pressure;BME280_temperature;BME280_humidity;BME280_pressure;Samples;Min_cycle;Max_cycle;Signal;HPM_P1;HPM_P2
2021/08/29 00:00:37;;;;;;;1.25;0.70;;;;;;;;;;5027669;28;20117;-78
2021/08/29 00:03:04;;;;;;;1.00;0.90;;;;;;;;;;5028460;28;20030;-78
2021/08/29 00:05:31;;;;;;;0.80;0.80;;;;;;;;;;5027005;28;20091;-78
2021/08/29 00:07:58;;;;;;;0.80;0.80;;;;;;;;;;5045580;28;20038;-78
2021/08/29 00:10:25;;;;;;;0.80;0.80;;;;;;;;;;5027554;28;20029;-78
2021/08/29 00:12:51;;;;;;;1.88;1.00;;;;;;;;;;5027300;28;20042;-78
2021/08/29 00:15:19;;;;;;;1.70;0.90;;;;;;;;;;5028537;28;20477;-78
2021/08/29 00:17:46;;;;;;;1.85;1.00;;;;;;;;;;5011653;28;20041;-78
2021/08/29 00:20:13;;;;;;;1.02;0.98;;;;;;;;;;5027134;28;20037;-78
2021/08/29 00:22:39;;;;;;;1.00;0.80;;;;;;;;;;5028852;28;20033;-78
2021/08/29 00:25:07;;;;;;;1.67;0.80;;;;;;;;;;5028037;28;20033;-78
2021/08/29 00:27:33;;;;;;;1.35;0.93;;;;;;;;;;5043893;28;20342;-78
2021/08/29 00:30:00;;;;;;;1.08;1.00;;;;;;;;;;5026899;28;20467;-78
2021/08/29 00:32:27;;;;;;;0.80;0.80;;;;;;;;;;5028543;28;20053;-78
2021/08/29 00:34:53;;;;;;;0.90;0.90;;;;;;;;;;5027036;28;20038;-78
2021/08/29 00:37:20;;;;;;;1.35;0.80;;;;;;;;;;5007951;28;20498;-78
2021/08/29 00:39:47;;;;;;;1.33;0.90;;;;;;;;;;5027784;28;20046;-78
2021/08/29 00:42:13;;;;;;;1.17;1.00;;;;;;;;;;5026547;28;20410;-78
2021/08/29 00:44:40;;;;;;;2.22;0.90;;;;;;;;;;5028914;28;20041;-78
2021/08/29 00:47:07;;;;;;;1.40;0.80;;;;;;;;;;5027290;28;20044;-78
2021/08/29 00:49:37;;;;;;;1.13;1.00;;;;;;;;;;5026052;28;20038;-78
2021/08/29 00:52:04;;;;;;;2.53;0.90;;;;;;;;;;5044476;28;20041;-78
2021/08/29 00:54:32;;;;;;;1.77;0.80;;;;;;;;;;5022028;28;20060;-78
2021/08/29 00:56:59;;;;;;;0.80;0.80;;;;;;;;;;5023177;28;20029;-78
2021/08/29 00:59:26;;;;;;;1.30;0.80;;;;;;;;;;5028947;28;20127;-78
2021/08/29 01:01:55;;;;;;;0.88;0.88;;;;;;;;;;5025315;28;20482;-78
2021/08/29 01:04:24;;;;;;;0.80;0.80;;;;;;;;;;5044926;28;20049;-78
2021/08/29 01:06:55;;;;;;;0.80;0.80;;;;;;;;;;5026794;28;20041;-78
2021/08/29 01:09:22;;;;;;;0.70;0.70;;;;;;;;;;5026587;28;20397;-78
2021/08/29 01:11:50;;;;;;;1.33;0.90;;;;;;;;;;5024912;28;20493;-78
2021/08/29 01:14:21;;;;;;;0.88;0.88;;;;;;;;;;5025118;28;20041;-78
2021/08/29 01:16:49;;;;;;;4.05;0.80;;;;;;;;;;5028568;28;20359;-78
2021/08/29 01:19:16;;;;;;;4.00;0.80;;;;;;;;;;5021946;28;20077;-78
2021/08/29 01:21:44;;;;;;;3.40;1.58;;;;;;;;;;5026707;28;20394;-78
2021/08/29 01:24:21;;;;;;;1.55;0.80;;;;;;;;;;5028298;28;20432;-78
2021/08/29 01:26:50;;;;;;;0.80;0.80;;;;;;;;;;5041047;28;20044;-78
2021/08/29 01:29:18;;;;;;;2.80;0.82;;;;;;;;;;5023437;28;20397;-78
2021/08/29 01:31:45;;;;;;;0.90;0.90;;;;;;;;;;5059563;28;20048;-78
2021/08/29 01:34:13;;;;;;;0.80;0.80;;;;;;;;;;5027513;28;20055;-78
2021/08/29 01:36:41;;;;;;;2.42;0.90;;;;;;;;;;5059453;28;20045;-78
2021/08/29 01:39:08;;;;;;;0.85;0.85;;;;;;;;;;5026139;28;20502;-78
2021/08/29 01:41:36;;;;;;;1.27;1.27;;;;;;;;;;5025906;28;20453;-78
2021/08/29 01:44:03;;;;;;;2.60;0.80;;;;;;;;;;5035308;28;20532;-78
2021/08/29 01:46:31;;;;;;;1.00;1.00;;;;;;;;;;5018109;28;20049;-78
2021/08/29 01:48:58;;;;;;;1.38;0.95;;;;;;;;;;5028722;28;20041;-78
2021/08/29 01:51:24;;;;;;;0.93;0.80;;;;;;;;;;5024518;28;20045;-78
2021/08/29 01:53:51;;;;;;;0.80;0.80;;;;;;;;;;5025520;28;20050;-78
2021/08/29 01:56:17;;;;;;;1.10;1.10;;;;;;;;;;5058336;28;20493;-78
2021/08/29 01:58:45;;;;;;;3.13;0.80;;;;;;;;;;5040238;28;20046;-78
2021/08/29 02:01:12;;;;;;;2.15;0.90;;;;;;;;;;5024578;28;20053;-78
2021/08/29 02:03:40;;;;;;;1.85;0.90;;;;;;;;;;5024588;28;20498;-78
2021/08/29 02:06:12;;;;;;;0.93;0.93;;;;;;;;;;5026259;28;20044;-78
2021/08/29 02:08:54;;;;;;;0.85;0.85;;;;;;;;;;5028145;28;20512;-78
2021/08/29 02:11:21;;;;;;;1.55;0.90;;;;;;;;;;5038854;28;20030;-78
2021/08/29 02:13:50;;;;;;;0.80;0.80;;;;;;;;;;5025253;28;20182;-78
2021/08/29 02:16:18;;;;;;;1.00;1.00;;;;;;;;;;5028817;28;20042;-78
2021/08/29 02:18:47;;;;;;;1.27;0.90;;;;;;;;;;5024561;28;20072;-78
2021/08/29 02:21:14;;;;;;;0.88;0.88;;;;;;;;;;5026658;28;20120;-78
2021/08/29 02:23:43;;;;;;;1.08;0.90;;;;;;;;;;5023475;28;20376;-78
2021/08/29 02:26:10;;;;;;;1.15;1.05;;;;;;;;;;5040820;28;20030;-78
2021/08/29 02:28:37;;;;;;;0.90;0.90;;;;;;;;;;5020887;28;20117;-78
2021/08/29 02:31:03;;;;;;;1.20;1.20;;;;;;;;;;5018075;28;20038;-78
2021/08/29 02:33:30;;;;;;;1.00;1.00;;;;;;;;;;5025367;28;20412;-78
2021/08/29 02:35:58;;;;;;;2.85;1.00;;;;;;;;;;5025332;28;20060;-78
2021/08/29 02:38:25;;;;;;;2.05;1.00;;;;;;;;;;5024262;28;20045;-78
2021/08/29 02:40:53;;;;;;;7.07;1.33;;;;;;;;;;5024019;28;20494;-78
2021/08/29 02:43:20;;;;;;;1.20;0.90;;;;;;;;;;5020308;28;20040;-78
2021/08/29 02:45:48;;;;;;;1.23;1.23;;;;;;;;;;5027323;28;20064;-78
2021/08/29 02:48:16;;;;;;;1.17;1.17;;;;;;;;;;5026864;28;20406;-78
2021/08/29 02:50:44;;;;;;;5.07;1.10;;;;;;;;;;5024588;28;20128;-78
2021/08/29 02:53:14;;;;;;;2.25;1.10;;;;;;;;;;5010074;28;20506;-78
2021/08/29 02:55:41;;;;;;;1.45;0.85;;;;;;;;;;5024795;28;20485;-78
2021/08/29 02:58:08;;;;;;;4.18;2.13;;;;;;;;;;5015583;28;20045;-78
2021/08/29 03:00:35;;;;;;;1.27;1.00;;;;;;;;;;5026739;28;20550;-78
2021/08/29 03:03:02;;;;;;;3.25;1.10;;;;;;;;;;5026612;28;20042;-78
2021/08/29 03:05:29;;;;;;;1.17;1.17;;;;;;;;;;5027380;28;20392;-78
2021/08/29 03:07:56;;;;;;;1.77;1.00;;;;;;;;;;5028223;28;20561;-78
2021/08/29 03:10:23;;;;;;;1.40;1.10;;;;;;;;;;5024963;28;20073;-78
2021/08/29 03:12:50;;;;;;;0.90;0.90;;;;;;;;;;5013135;28;20049;-78
2021/08/29 03:15:16;;;;;;;1.58;1.00;;;;;;;;;;5043379;28;20065;-78
2021/08/29 03:17:43;;;;;;;1.30;1.15;;;;;;;;;;5031293;28;20048;-78
2021/08/29 03:20:10;;;;;;;1.10;1.10;;;;;;;;;;5028266;28;20049;-78
2021/08/29 03:22:38;;;;;;;1.17;1.17;;;;;;;;;;5029224;28;20029;-78
2021/08/29 03:25:06;;;;;;;2.10;1.00;;;;;;;;;;5030614;28;20047;-78
2021/08/29 03:27:33;;;;;;;3.80;1.10;;;;;;;;;;5012722;28;20061;-78
2021/08/29 03:30:00;;;;;;;1.30;0.90;;;;;;;;;;5062573;28;20417;-78
2021/08/29 03:32:27;;;;;;;1.10;1.10;;;;;;;;;;5029629;28;20392;-78
2021/08/29 03:34:57;;;;;;;1.15;0.90;;;;;;;;;;5009464;28;20069;-78
2021/08/29 03:37:25;;;;;;;2.58;1.10;;;;;;;;;;5029286;28;20045;-78
2021/08/29 03:39:52;;;;;;;5.05;1.00;;;;;;;;;;5026232;28;20049;-78
2021/08/29 03:42:19;;;;;;;1.35;1.05;;;;;;;;;;5028275;28;20124;-78
2021/08/29 03:44:46;;;;;;;3.70;1.10;;;;;;;;;;5025963;28;20041;-78
2021/08/29 03:47:13;;;;;;;4.03;1.10;;;;;;;;;;5027153;28;20052;-78
2021/08/29 03:49:40;;;;;;;1.85;1.00;;;;;;;;;;5009565;28;20049;-78
2021/08/29 03:52:07;;;;;;;1.20;1.20;;;;;;;;;;5027720;28;20038;-78
2021/08/29 03:54:34;;;;;;;3.80;1.00;;;;;;;;;;5026683;28;20091;-78
2021/08/29 03:57:01;;;;;;;1.52;0.80;;;;;;;;;;5030028;28;20049;-78
2021/08/29 03:59:29;;;;;;;0.90;0.90;;;;;;;;;;5040075;28;20107;-78
2021/08/29 04:01:56;;;;;;;1.65;0.90;;;;;;;;;;5047957;28;20045;-78
2021/08/29 04:04:23;;;;;;;1.20;1.10;;;;;;;;;;5041154;28;20033;-78
2021/08/29 04:06:53;;;;;;;1.85;1.73;;;;;;;;;;5027861;28;20072;-78
2021/08/29 04:09:20;;;;;;;1.35;1.27;;;;;;;;;;5029631;28;20080;-78
2021/08/29 04:11:47;;;;;;;1.75;1.25;;;;;;;;;;5058637;28;20037;-78
2021/08/29 04:14:14;;;;;;;1.92;1.00;;;;;;;;;;5028532;28;20053;-78
2021/08/29 04:16:41;;;;;;;1.00;1.00;;;;;;;;;;5028308;28;20042;-78
2021/08/29 04:19:08;;;;;;;1.85;1.00;;;;;;;;;;5027941;28;20044;-78
2021/08/29 04:21:35;;;;;;;5.28;2.35;;;;;;;;;;5028971;28;20037;-78
2021/08/29 04:24:02;;;;;;;6.60;1.13;;;;;;;;;;5041795;28;20489;-78
2021/08/29 04:26:28;;;;;;;1.48;1.48;;;;;;;;;;5061514;28;20397;-78
2021/08/29 04:28:55;;;;;;;2.83;1.00;;;;;;;;;;5041727;28;20038;-78
2021/08/29 04:31:29;;;;;;;3.05;1.88;;;;;;;;;;5026418;28;20041;-78
2021/08/29 04:33:56;;;;;;;1.15;0.90;;;;;;;;;;5044203;28;20534;-78
2021/08/29 04:36:23;;;;;;;1.25;1.25;;;;;;;;;;5025381;28;20049;-78
2021/08/29 04:38:50;;;;;;;5.25;1.30;;;;;;;;;;5028165;28;20074;-78
2021/08/29 04:41:18;;;;;;;1.85;1.40;;;;;;;;;;5027782;28;20033;-78
2021/08/29 04:43:44;;;;;;;1.30;1.30;;;;;;;;;;5026868;28;20045;-78
2021/08/29 04:46:14;;;;;;;3.67;1.15;;;;;;;;;;5027354;28;20108;-78
2021/08/29 04:48:41;;;;;;;1.92;1.50;;;;;;;;;;5024064;28;20382;-77
2021/08/29 04:51:08;;;;;;;0.90;0.90;;;;;;;;;;5010515;28;20481;-78
2021/08/29 04:53:35;;;;;;;1.00;1.00;;;;;;;;;;5028710;28;20041;-78
2021/08/29 04:56:01;;;;;;;4.18;1.08;;;;;;;;;;5010532;28;20083;-78
2021/08/29 04:58:28;;;;;;;0.90;0.90;;;;;;;;;;5028617;28;20111;-78
2021/08/29 05:00:54;;;;;;;1.85;1.30;;;;;;;;;;5056482;28;20128;-78
2021/08/29 05:03:21;;;;;;;1.13;1.00;;;;;;;;;;5044632;28;20038;-78
2021/08/29 05:05:48;;;;;;;0.90;0.90;;;;;;;;;;5010882;28;20041;-78
2021/08/29 05:08:15;;;;;;;1.65;0.90;;;;;;;;;;5029095;28;20124;-78
2021/08/29 05:10:42;;;;;;;0.93;0.90;;;;;;;;;;5027243;28;20048;-78
2021/08/29 05:13:09;;;;;;;1.85;1.30;;;;;;;;;;5029592;28;20054;-78
2021/08/29 05:15:36;;;;;;;3.55;1.10;;;;;;;;;;5049210;28;20440;-78
2021/08/29 05:18:02;;;;;;;1.33;0.90;;;;;;;;;;5029960;28;20124;-78
2021/08/29 05:20:29;;;;;;;1.58;1.10;;;;;;;;;;5028529;28;20041;-78
2021/08/29 05:22:56;;;;;;;0.90;0.90;;;;;;;;;;5030664;28;20367;-78
2021/08/29 05:25:23;;;;;;;0.95;0.95;;;;;;;;;;5024964;28;20040;-78
2021/08/29 05:27:50;;;;;;;0.90;0.90;;;;;;;;;;5034663;28;20099;-78
2021/08/29 05:30:17;;;;;;;0.90;0.90;;;;;;;;;;5030065;28;20083;-78
2021/08/29 05:32:43;;;;;;;3.35;1.00;;;;;;;;;;5028397;28;20557;-78
2021/08/29 05:35:10;;;;;;;1.00;1.00;;;;;;;;;;5028564;28;20111;-78
2021/08/29 05:37:37;;;;;;;2.63;1.00;;;;;;;;;;5029671;28;20485;-78
2021/08/29 05:40:04;;;;;;;0.90;0.90;;;;;;;;;;5057918;28;20571;-78
2021/08/29 05:42:31;;;;;;;4.00;1.00;;;;;;;;;;5026840;28;20467;-78
2021/08/29 05:44:58;;;;;;;3.13;1.70;;;;;;;;;;5023725;28;20041;-77
2021/08/29 05:47:24;;;;;;;1.27;1.00;;;;;;;;;;5027633;28;20045;-77
2021/08/29 05:49:51;;;;;;;0.90;0.90;;;;;;;;;;5060030;28;20038;-77
2021/08/29 05:52:18;;;;;;;1.00;1.00;;;;;;;;;;5030288;28;20125;-77
2021/08/29 05:54:44;;;;;;;1.30;0.90;;;;;;;;;;5029413;28;20049;-77
2021/08/29 05:57:11;;;;;;;1.67;0.90;;;;;;;;;;5027523;28;20465;-77
2021/08/29 05:59:38;;;;;;;0.90;0.90;;;;;;;;;;5020969;28;20080;-77
2021/08/29 06:02:04;;;;;;;1.00;1.00;;;;;;;;;;5039203;28;20041;-77
2021/08/29 06:04:31;;;;;;;3.38;0.88;;;;;;;;;;5050840;28;20542;-77
2021/08/29 06:06:58;;;;;;;1.17;1.00;;;;;;;;;;5028296;28;20490;-78
2021/08/29 06:09:25;;;;;;;1.33;0.80;;;;;;;;;;5028588;28;20037;-78
2021/08/29 06:11:51;;;;;;;1.77;0.90;;;;;;;;;;5058721;28;20398;-78
2021/08/29 06:14:18;;;;;;;0.80;0.80;;;;;;;;;;5027968;28;20038;-78
2021/08/29 06:16:45;;;;;;;1.40;0.90;;;;;;;;;;5027661;28;20038;-78
2021/08/29 06:19:11;;;;;;;3.90;0.90;;;;;;;;;;5027448;28;20096;-78
2021/08/29 06:21:38;;;;;;;1.00;1.00;;;;;;;;;;5042116;28;20033;-78
2021/08/29 06:24:04;;;;;;;1.35;1.00;;;;;;;;;;5026607;28;20041;-78
2021/08/29 06:26:31;;;;;;;1.85;1.00;;;;;;;;;;5027235;28;20096;-78
2021/08/29 06:28:57;;;;;;;1.00;1.00;;;;;;;;;;5027582;28;20049;-78
2021/08/29 06:31:24;;;;;;;3.13;0.90;;;;;;;;;;5028810;28;20385;-78
2021/08/29 06:33:51;;;;;;;0.93;0.93;;;;;;;;;;5058341;28;20041;-78
2021/08/29 06:36:17;;;;;;;2.17;1.58;;;;;;;;;;5027185;28;20371;-78
2021/08/29 06:38:44;;;;;;;1.27;1.00;;;;;;;;;;5027858;28;20056;-78
2021/08/29 06:41:10;;;;;;;3.40;0.90;;;;;;;;;;5025410;28;20045;-78
2021/08/29 06:43:37;;;;;;;0.90;0.90;;;;;;;;;;5015661;28;20084;-78
2021/08/29 06:46:04;;;;;;;2.13;0.85;;;;;;;;;;5031251;28;20033;-78
2021/08/29 06:48:30;;;;;;;0.80;0.80;;;;;;;;;;5032925;28;20099;-78
2021/08/29 06:50:57;;;;;;;3.17;0.80;;;;;;;;;;5033147;28;20069;-78
2021/08/29 06:53:23;;;;;;;0.95;0.80;;;;;;;;;;5031822;28;20509;-78
2021/08/29 06:55:51;;;;;;;0.77;0.77;;;;;;;;;;5031723;28;20080;-78
2021/08/29 06:58:17;;;;;;;1.83;0.90;;;;;;;;;;5031207;28;20448;-77
2021/08/29 07:00:44;;;;;;;1.85;1.00;;;;;;;;;;5031450;28;20037;-77
2021/08/29 07:03:11;;;;;;;2.78;0.88;;;;;;;;;;5021588;28;20065;-78
2021/08/29 07:05:38;;;;;;;1.02;0.80;;;;;;;;;;5025384;28;20057;-78
2021/08/29 07:08:05;;;;;;;0.80;0.80;;;;;;;;;;5032777;28;20064;-78
2021/08/29 07:10:31;;;;;;;0.93;0.75;;;;;;;;;;5030648;28;20038;-78
2021/08/29 07:12:58;;;;;;;2.72;0.75;;;;;;;;;;5058542;28;20045;-78
2021/08/29 07:15:25;;;;;;;0.80;0.80;;;;;;;;;;5015077;28;20041;-78
2021/08/29 07:17:51;;;;;;;1.23;1.13;;;;;;;;;;5029854;28;20103;-78
2021/08/29 07:20:18;;;;;;;1.50;0.80;;;;;;;;;;5031729;28;20476;-78
2021/08/29 07:22:44;;;;;;;1.25;1.25;;;;;;;;;;5031125;28;20098;-78
2021/08/29 07:25:11;;;;;;;0.95;0.80;;;;;;;;;;5031045;28;20162;-78
2021/08/29 07:27:38;;;;;;;1.98;0.80;;;;;;;;;;5031206;28;20037;-78
2021/08/29 07:30:09;;;;;;;0.80;0.80;;;;;;;;;;5059855;28;20050;-78
2021/08/29 07:32:36;;;;;;;0.98;0.90;;;;;;;;;;5030996;28;20110;-78
2021/08/29 07:35:03;;;;;;;0.70;0.70;;;;;;;;;;5033087;28;20506;-78
2021/08/29 07:37:29;;;;;;;0.70;0.70;;;;;;;;;;5031449;28;20410;-78
2021/08/29 07:39:56;;;;;;;0.73;0.70;;;;;;;;;;5032428;28;20053;-78
2021/08/29 07:42:23;;;;;;;0.70;0.70;;;;;;;;;;5030833;28;20041;-78
2021/08/29 07:44:49;;;;;;;1.85;0.70;;;;;;;;;;5029984;28;20042;-78
2021/08/29 07:47:16;;;;;;;0.70;0.70;;;;;;;;;;5030658;28;20639;-78
2021/08/29 07:49:42;;;;;;;0.70;0.70;;;;;;;;;;5029098;28;20061;-78
2021/08/29 07:52:10;;;;;;;3.80;0.60;;;;;;;;;;5031455;28;20102;-78
2021/08/29 07:54:37;;;;;;;0.88;0.75;;;;;;;;;;5029165;28;20392;-78
2021/08/29 07:57:04;;;;;;;1.98;0.60;;;;;;;;;;5028431;28;20552;-78
2021/08/29 07:59:30;;;;;;;0.60;0.60;;;;;;;;;;5028726;28;20034;-78
2021/08/29 08:01:57;;;;;;;0.60;0.60;;;;;;;;;;5028523;28;20048;-78
2021/08/29 08:04:24;;;;;;;0.60;0.60;;;;;;;;;;5031538;28;20096;-78
2021/08/29 08:06:50;;;;;;;0.70;0.70;;;;;;;;;;5044123;28;20092;-78
2021/08/29 08:09:17;;;;;;;1.67;0.60;;;;;;;;;;5030017;28;20038;-78
2021/08/29 08:11:44;;;;;;;0.80;0.50;;;;;;;;;;5033431;28;20038;-78
2021/08/29 08:14:10;;;;;;;1.40;0.50;;;;;;;;;;5030041;28;20041;-78
2021/08/29 08:16:37;;;;;;;0.50;0.50;;;;;;;;;;5030521;28;20095;-78
2021/08/29 08:19:04;;;;;;;0.60;0.60;;;;;;;;;;5028942;28;20034;-78
2021/08/29 08:21:30;;;;;;;1.38;0.60;;;;;;;;;;5030725;28;20441;-78
2021/08/29 08:23:57;;;;;;;1.65;0.60;;;;;;;;;;5031144;28;20091;-78
2021/08/29 08:26:24;;;;;;;0.50;0.50;;;;;;;;;;5029972;28;20038;-78
2021/08/29 08:28:50;;;;;;;0.57;0.57;;;;;;;;;;5017119;28;20038;-78
2021/08/29 08:31:17;;;;;;;0.57;0.55;;;;;;;;;;5061589;28;20037;-78
2021/08/29 08:33:44;;;;;;;0.50;0.50;;;;;;;;;;5027111;28;20067;-78
2021/08/29 08:36:11;;;;;;;0.55;0.55;;;;;;;;;;5031618;28;20042;-78
2021/08/29 08:38:37;;;;;;;0.50;0.50;;;;;;;;;;5027408;28;20061;-78
2021/08/29 08:41:04;;;;;;;0.50;0.50;;;;;;;;;;5044005;28;20090;-78
2021/08/29 08:43:30;;;;;;;0.50;0.50;;;;;;;;;;5061835;28;20065;-78
2021/08/29 08:45:57;;;;;;;1.08;0.50;;;;;;;;;;5028285;28;20477;-78
2021/08/29 08:48:25;;;;;;;0.50;0.50;;;;;;;;;;5026138;28;20038;-78
2021/08/29 08:50:53;;;;;;;0.50;0.50;;;;;;;;;;5027711;28;20040;-78
2021/08/29 08:53:22;;;;;;;0.50;0.50;;;;;;;;;;5028650;28;20034;-78
2021/08/29 08:55:50;;;;;;;0.50;0.50;;;;;;;;;;5030535;28;20083;-78
2021/08/29 08:58:17;;;;;;;0.50;0.50;;;;;;;;;;5028374;28;20103;-78
2021/08/29 09:00:44;;;;;;;0.40;0.40;;;;;;;;;;5026622;28;20038;-78
2021/08/29 09:03:11;;;;;;;7.22;0.50;;;;;;;;;;5028112;28;20095;-78
2021/08/29 09:05:38;;;;;;;0.63;0.50;;;;;;;;;;5029901;28;20036;-78
2021/08/29 09:08:05;;;;;;;0.40;0.40;;;;;;;;;;5030001;28;20041;-78
2021/08/29 09:10:34;;;;;;;0.50;0.50;;;;;;;;;;5028291;28;20076;-78
2021/08/29 09:13:02;;;;;;;0.50;0.50;;;;;;;;;;5027330;28;20050;-78
2021/08/29 09:15:29;;;;;;;0.50;0.50;;;;;;;;;;5026111;28;20124;-78
2021/08/29 09:17:56;;;;;;;1.30;0.43;;;;;;;;;;5028793;28;20486;-78
2021/08/29 09:20:30;;;;;;;1.20;0.40;;;;;;;;;;5028673;28;20055;-79
2021/08/29 09:23:01;;;;;;;0.40;0.40;;;;;;;;;;5025781;28;20050;-78
2021/08/29 09:25:29;;;;;;;0.70;0.70;;;;;;;;;;5030141;28;20033;-78
2021/08/29 09:28:00;;;;;;;0.43;0.43;;;;;;;;;;5029768;28;20042;-78
2021/08/29 09:30:29;;;;;;;0.40;0.40;;;;;;;;;;5026780;28;20366;-78
2021/08/29 09:32:56;;;;;;;0.50;0.50;;;;;;;;;;5025944;28;20486;-78
2021/08/29 09:35:25;;;;;;;0.40;0.40;;;;;;;;;;5023406;28;20061;-78
2021/08/29 09:37:53;;;;;;;0.50;0.50;;;;;;;;;;5010186;28;20046;-78
2021/08/29 09:40:22;;;;;;;0.40;0.40;;;;;;;;;;5028737;28;20049;-78
2021/08/29 09:42:49;;;;;;;0.40;0.40;;;;;;;;;;5027765;28;20507;-78
2021/08/29 09:45:31;;;;;;;0.50;0.50;;;;;;;;;;5031015;28;20045;-78
2021/08/29 09:48:05;;;;;;;3.65;0.50;;;;;;;;;;5059410;28;20556;-78
2021/08/29 09:50:33;;;;;;;2.05;1.08;;;;;;;;;;5020234;28;20084;-78
2021/08/29 09:53:00;;;;;;;0.85;0.50;;;;;;;;;;5028602;28;20045;-78
2021/08/29 09:55:27;;;;;;;1.75;0.47;;;;;;;;;;5027617;28;20549;-78
2021/08/29 09:57:54;;;;;;;0.50;0.50;;;;;;;;;;5026306;28;20040;-78
2021/08/29 10:00:21;;;;;;;0.50;0.50;;;;;;;;;;5025749;28;20456;-78
2021/08/29 10:03:00;;;;;;;0.40;0.40;;;;;;;;;;5027455;28;20065;-78
2021/08/29 10:05:27;;;;;;;0.40;0.40;;;;;;;;;;5010805;28;20556;-78
2021/08/29 10:07:58;;;;;;;0.40;0.40;;;;;;;;;;5010060;28;20438;-78
2021/08/29 10:10:26;;;;;;;0.50;0.50;;;;;;;;;;5026963;28;20049;-78
2021/08/29 10:12:53;;;;;;;0.47;0.47;;;;;;;;;;5035638;28;20086;-78
2021/08/29 10:15:20;;;;;;;0.40;0.40;;;;;;;;;;5029422;28;20037;-78
2021/08/29 10:17:47;;;;;;;0.40;0.40;;;;;;;;;;5027258;28;20452;-78
2021/08/29 10:20:14;;;;;;;0.40;0.40;;;;;;;;;;5026659;28;20041;-78
2021/08/29 10:22:41;;;;;;;0.40;0.40;;;;;;;;;;5027283;28;20097;-78
2021/08/29 10:25:08;;;;;;;0.40;0.40;;;;;;;;;;5027061;28;20064;-78
2021/08/29 10:27:39;;;;;;;0.40;0.40;;;;;;;;;;5025567;28;20038;-78
2021/08/29 10:30:07;;;;;;;0.40;0.40;;;;;;;;;;5011707;28;20394;-78
2021/08/29 10:32:35;;;;;;;0.45;0.45;;;;;;;;;;5023693;28;20510;-78
2021/08/29 10:35:07;;;;;;;0.40;0.40;;;;;;;;;;5014793;28;20489;-78
2021/08/29 10:37:35;;;;;;;0.88;0.40;;;;;;;;;;5025371;28;20046;-78
2021/08/29 10:40:03;;;;;;;0.40;0.40;;;;;;;;;;5026997;28;20049;-78
2021/08/29 10:42:37;;;;;;;0.40;0.40;;;;;;;;;;5039872;28;20053;-78
2021/08/29 10:45:04;;;;;;;0.40;0.40;;;;;;;;;;5061022;28;20040;-78
2021/08/29 10:47:32;;;;;;;0.45;0.40;;;;;;;;;;5059095;28;20050;-78
2021/08/29 10:50:00;;;;;;;0.32;0.32;;;;;;;;;;5062816;28;20038;-78
2021/08/29 10:52:31;;;;;;;0.40;0.40;;;;;;;;;;5028640;28;20373;-78
2021/08/29 10:55:08;;;;;;;0.47;0.47;;;;;;;;;;5045413;28;20047;-78
2021/08/29 10:57:37;;;;;;;0.40;0.40;;;;;;;;;;5060159;28;20037;-78
2021/08/29 11:00:04;;;;;;;0.30;0.30;;;;;;;;;;5055002;28;20685;-78
2021/08/29 11:02:38;;;;;;;0.40;0.40;;;;;;;;;;5017993;28;20042;-78
2021/08/29 11:05:07;;;;;;;0.32;0.32;;;;;;;;;;5054641;28;20034;-78
2021/08/29 11:07:44;;;;;;;4.10;0.40;;;;;;;;;;5028228;28;20720;-78
2021/08/29 11:10:31;;;;;;;1.17;0.40;;;;;;;;;;5028433;28;20430;-78
2021/08/29 11:12:58;;;;;;;0.40;0.40;;;;;;;;;;5015941;28;20382;-78
2021/08/29 11:15:36;;;;;;;0.30;0.30;;;;;;;;;;5048163;28;20040;-78
2021/08/29 11:18:05;;;;;;;0.32;0.32;;;;;;;;;;5036263;28;20104;-78
2021/08/29 11:20:32;;;;;;;0.40;0.40;;;;;;;;;;5026723;28;20405;-78
2021/08/29 11:22:59;;;;;;;0.30;0.30;;;;;;;;;;5014024;28;20061;-78
2021/08/29 11:25:27;;;;;;;0.40;0.40;;;;;;;;;;5028341;28;20065;-78
2021/08/29 11:27:55;;;;;;;0.30;0.30;;;;;;;;;;5029793;28;20505;-78
2021/08/29 11:30:27;;;;;;;0.30;0.30;;;;;;;;;;5024105;28;20084;-78
2021/08/29 11:32:59;;;;;;;0.30;0.30;;;;;;;;;;5032492;28;20068;-78
2021/08/29 11:35:29;;;;;;;0.30;0.30;;;;;;;;;;5031823;28;20124;-78
2021/08/29 11:37:59;;;;;;;0.30;0.30;;;;;;;;;;5031144;28;20390;-78
2021/08/29 11:40:43;;;;;;;0.38;0.38;;;;;;;;;;5030047;28;20068;-78
2021/08/29 11:43:30;;;;;;;0.30;0.30;;;;;;;;;;5026832;28;20037;-78
2021/08/29 11:46:03;;;;;;;0.30;0.30;;;;;;;;;;5026947;28;20383;-78
2021/08/29 11:48:31;;;;;;;0.30;0.30;;;;;;;;;;5029753;28;20089;-78
2021/08/29 11:50:58;;;;;;;0.30;0.30;;;;;;;;;;5030744;28;20049;-78
2021/08/29 11:53:26;;;;;;;0.30;0.30;;;;;;;;;;5027939;28;20152;-78
2021/08/29 11:55:57;;;;;;;0.30;0.30;;;;;;;;;;5031008;28;20044;-78
2021/08/29 11:58:23;;;;;;;0.30;0.30;;;;;;;;;;5030829;28;20091;-79
2021/08/29 12:00:51;;;;;;;0.40;0.40;;;;;;;;;;5029047;28;20482;-79
2021/08/29 12:03:29;;;;;;;0.30;0.30;;;;;;;;;;5028478;28;20457;-79
2021/08/29 12:06:03;;;;;;;2.88;0.30;;;;;;;;;;5012332;28;20502;-79
2021/08/29 12:08:34;;;;;;;0.30;0.30;;;;;;;;;;5028809;28;20041;-79
2021/08/29 12:11:01;;;;;;;0.30;0.30;;;;;;;;;;5030266;28;20043;-79
2021/08/29 12:13:29;;;;;;;0.30;0.30;;;;;;;;;;5032451;28;20401;-79
2021/08/29 12:16:00;;;;;;;0.30;0.30;;;;;;;;;;5020168;28;20117;-79
2021/08/29 12:18:28;;;;;;;0.30;0.30;;;;;;;;;;5025332;28;20133;-79
2021/08/29 12:20:55;;;;;;;0.35;0.35;;;;;;;;;;5028482;28;20061;-79
2021/08/29 12:23:24;;;;;;;0.30;0.30;;;;;;;;;;5030325;28;20037;-79
2021/08/29 12:25:58;;;;;;;0.22;0.22;;;;;;;;;;5043288;28;20033;-79
2021/08/29 12:28:25;;;;;;;0.20;0.20;;;;;;;;;;5027574;28;20124;-79
2021/08/29 12:30:53;;;;;;;0.30;0.30;;;;;;;;;;5030675;28;20432;-79
2021/08/29 12:33:20;;;;;;;0.30;0.30;;;;;;;;;;5029620;28;20129;-79
2021/08/29 12:35:47;;;;;;;0.30;0.30;;;;;;;;;;5030312;28;20033;-79
2021/08/29 12:38:30;;;;;;;0.30;0.30;;;;;;;;;;5022866;28;20041;-79
2021/08/29 12:40:58;;;;;;;0.30;0.30;;;;;;;;;;5029331;28;20037;-79
2021/08/29 12:43:27;;;;;;;0.30;0.30;;;;;;;;;;5042422;28;20041;-79
2021/08/29 12:45:55;;;;;;;0.30;0.30;;;;;;;;;;5029135;28;20123;-79
2021/08/29 12:48:22;;;;;;;0.30;0.30;;;;;;;;;;5030419;28;20041;-79
2021/08/29 12:50:51;;;;;;;0.20;0.20;;;;;;;;;;5027631;28;20060;-79
2021/08/29 12:53:19;;;;;;;0.30;0.30;;;;;;;;;;5029365;28;20122;-79
2021/08/29 12:55:49;;;;;;;0.52;0.30;;;;;;;;;;5029416;28;20509;-79
2021/08/29 12:58:18;;;;;;;0.30;0.30;;;;;;;;;;5028839;28;20037;-79
2021/08/29 13:00:51;;;;;;;0.60;0.60;;;;;;;;;;5013463;28;20136;-79
2021/08/29 13:03:19;;;;;;;0.70;0.70;;;;;;;;;;5027544;28;20049;-79
2021/08/29 13:05:47;;;;;;;1.00;0.30;;;;;;;;;;5027900;28;20619;-79
2021/08/29 13:08:14;;;;;;;0.30;0.30;;;;;;;;;;5062608;28;20133;-79
2021/08/29 13:11:00;;;;;;;0.30;0.30;;;;;;;;;;5027148;28;20517;-79
2021/08/29 13:13:30;;;;;;;0.30;0.30;;;;;;;;;;5022299;28;20112;-79
2021/08/29 13:15:57;;;;;;;0.32;0.32;;;;;;;;;;5053853;28;20461;-79
2021/08/29 13:18:27;;;;;;;0.30;0.30;;;;;;;;;;5019885;28;20490;-79
2021/08/29 13:20:54;;;;;;;0.30;0.30;;;;;;;;;;5030471;28;20200;-79
2021/08/29 13:23:22;;;;;;;0.30;0.30;;;;;;;;;;5028161;28;20041;-79
2021/08/29 13:25:50;;;;;;;0.30;0.30;;;;;;;;;;5029759;28;20029;-79
2021/08/29 13:28:17;;;;;;;0.30;0.30;;;;;;;;;;5025883;28;20038;-79
2021/08/29 13:30:44;;;;;;;0.30;0.30;;;;;;;;;;5037806;28;20037;-79
2021/08/29 13:33:15;;;;;;;0.30;0.30;;;;;;;;;;5028926;28;20096;-79
2021/08/29 13:35:41;;;;;;;0.30;0.30;;;;;;;;;;5029117;28;20124;-79
2021/08/29 13:38:09;;;;;;;0.30;0.30;;;;;;;;;;5027859;28;20107;-79
2021/08/29 13:40:36;;;;;;;0.30;0.30;;;;;;;;;;5012805;28;20595;-79
2021/08/29 13:43:03;;;;;;;0.30;0.30;;;;;;;;;;5037680;28;20091;-79
2021/08/29 13:45:33;;;;;;;0.30;0.30;;;;;;;;;;5028815;28;20111;-79
2021/08/29 13:48:01;;;;;;;0.40;0.40;;;;;;;;;;5044188;28;20057;-79
2021/08/29 13:50:28;;;;;;;0.30;0.30;;;;;;;;;;5058800;28;20061;-79
2021/08/29 13:53:01;;;;;;;0.30;0.30;;;;;;;;;;5029990;28;20049;-79
2021/08/29 13:55:28;;;;;;;1.55;0.30;;;;;;;;;;5027574;28;20041;-79
2021/08/29 13:57:54;;;;;;;0.30;0.30;;;;;;;;;;5059308;28;20125;-79
2021/08/29 14:00:21;;;;;;;0.30;0.30;;;;;;;;;;5023901;28;20049;-79
2021/08/29 14:02:48;;;;;;;0.30;0.30;;;;;;;;;;5020326;28;20553;-79
2021/08/29 14:05:17;;;;;;;0.30;0.30;;;;;;;;;;5029227;28;20044;-79
2021/08/29 14:07:47;;;;;;;1.10;0.40;;;;;;;;;;5029078;28;20488;-79
2021/08/29 14:10:14;;;;;;;0.30;0.30;;;;;;;;;;5028903;28;20041;-79
2021/08/29 14:12:40;;;;;;;0.38;0.38;;;;;;;;;;5027260;28;20133;-79
2021/08/29 14:15:07;;;;;;;0.95;0.30;;;;;;;;;;5022199;28;20037;-79
2021/08/29 14:17:34;;;;;;;0.30;0.30;;;;;;;;;;5029784;28;20076;-79
2021/08/29 14:20:01;;;;;;;0.38;0.38;;;;;;;;;;5026749;28;20096;-79
2021/08/29 14:22:27;;;;;;;0.30;0.30;;;;;;;;;;5027858;28;20049;-79
2021/08/29 14:24:54;;;;;;;0.30;0.30;;;;;;;;;;5028216;28;20073;-79
2021/08/29 14:27:21;;;;;;;0.30;0.30;;;;;;;;;;5024530;28;20033;-79
2021/08/29 14:29:47;;;;;;;0.30;0.30;;;;;;;;;;5026045;28;20640;-79
2021/08/29 14:32:14;;;;;;;0.30;0.30;;;;;;;;;;5043026;28;20052;-79
2021/08/29 14:34:40;;;;;;;1.00;0.30;;;;;;;;;;5028305;28;20534;-79
2021/08/29 14:37:07;;;;;;;0.25;0.25;;;;;;;;;;5028600;28;20041;-79
2021/08/29 14:39:34;;;;;;;0.30;0.30;;;;;;;;;;5010285;28;20751;-79
2021/08/29 14:42:02;;;;;;;0.30;0.30;;;;;;;;;;5028360;28;20212;-79
2021/08/29 14:44:28;;;;;;;0.55;0.30;;;;;;;;;;5028361;28;20520;-79
2021/08/29 14:46:55;;;;;;;0.30;0.30;;;;;;;;;;5027715;28;20065;-79